Аэропорт: Игнатьево. Благовещенск

ICAO: UHBB

METAR:
2019-09-21 16:00:00
UHBB 211600Z 23002MPS 9999 FEW033 07/02 Q1020 R36/090060 NOSIG RMK QFE747/0996
METAR:
2019-09-21 13:33:00
TAF UHBB 211333Z 2115/2215 23003MPS 9999 SCT030 BECMG 2202/2204 18003MPS